sensor_id;sensor_type;location;lat;lon;timestamp;P1;durP1;ratioP1;P2;durP2;ratioP2
63050;SDS011;49136;47.416;19.402;2023-08-07T00:01:53;265.42;;;247.70;;
63050;SDS011;49136;47.416;19.402;2023-08-07T00:04:18;243.77;;;227.68;;
63050;SDS011;49136;47.416;19.402;2023-08-07T00:06:43;255.63;;;238.90;;
63050;SDS011;49136;47.416;19.402;2023-08-07T00:09:09;297.48;;;275.77;;
63050;SDS011;49136;47.416;19.402;2023-08-07T00:11:34;318.98;;;296.08;;
63050;SDS011;49136;47.416;19.402;2023-08-07T00:14:00;282.33;;;263.90;;
63050;SDS011;49136;47.416;19.402;2023-08-07T00:16:25;256.63;;;239.23;;
63050;SDS011;49136;47.416;19.402;2023-08-07T00:18:51;272.40;;;253.80;;
63050;SDS011;49136;47.416;19.402;2023-08-07T00:21:20;389.88;;;358.95;;
63050;SDS011;49136;47.416;19.402;2023-08-07T00:23:46;306.40;;;285.98;;
63050;SDS011;49136;47.416;19.402;2023-08-07T00:26:12;291.02;;;270.70;;
63050;SDS011;49136;47.416;19.402;2023-08-07T00:28:37;230.77;;;215.50;;
63050;SDS011;49136;47.416;19.402;2023-08-07T00:31:02;335.88;;;310.98;;
63050;SDS011;49136;47.416;19.402;2023-08-07T00:33:28;288.58;;;268.52;;
63050;SDS011;49136;47.416;19.402;2023-08-07T00:35:53;253.50;;;236.45;;
63050;SDS011;49136;47.416;19.402;2023-08-07T00:38:19;260.88;;;243.77;;
63050;SDS011;49136;47.416;19.402;2023-08-07T00:40:44;256.75;;;239.85;;
63050;SDS011;49136;47.416;19.402;2023-08-07T00:43:09;263.92;;;246.32;;
63050;SDS011;49136;47.416;19.402;2023-08-07T00:45:43;255.15;;;238.50;;
63050;SDS011;49136;47.416;19.402;2023-08-07T00:48:12;282.35;;;263.60;;
63050;SDS011;49136;47.416;19.402;2023-08-07T00:50:40;248.43;;;232.23;;
63050;SDS011;49136;47.416;19.402;2023-08-07T00:53:07;298.88;;;278.02;;
63050;SDS011;49136;47.416;19.402;2023-08-07T00:55:33;282.67;;;261.95;;
63050;SDS011;49136;47.416;19.402;2023-08-07T00:57:59;500.33;;;455.85;;
63050;SDS011;49136;47.416;19.402;2023-08-07T01:00:26;279.40;;;260.35;;
63050;SDS011;49136;47.416;19.402;2023-08-07T01:02:53;255.20;;;238.15;;
63050;SDS011;49136;47.416;19.402;2023-08-07T01:05:21;289.30;;;269.83;;
63050;SDS011;49136;47.416;19.402;2023-08-07T01:07:47;250.15;;;233.52;;
63050;SDS011;49136;47.416;19.402;2023-08-07T01:10:13;268.02;;;249.40;;
63050;SDS011;49136;47.416;19.402;2023-08-07T01:12:45;297.45;;;277.30;;
63050;SDS011;49136;47.416;19.402;2023-08-07T01:15:22;403.48;;;372.25;;
63050;SDS011;49136;47.416;19.402;2023-08-07T01:17:53;257.73;;;240.68;;
63050;SDS011;49136;47.416;19.402;2023-08-07T01:20:19;291.90;;;272.40;;
63050;SDS011;49136;47.416;19.402;2023-08-07T01:22:44;253.45;;;236.82;;
63050;SDS011;49136;47.416;19.402;2023-08-07T01:25:10;268.73;;;250.70;;
63050;SDS011;49136;47.416;19.402;2023-08-07T01:27:36;281.05;;;262.20;;
63050;SDS011;49136;47.416;19.402;2023-08-07T01:35:40;291.48;;;271.35;;
63050;SDS011;49136;47.416;19.402;2023-08-07T01:38:09;250.32;;;234.13;;
63050;SDS011;49136;47.416;19.402;2023-08-07T01:40:36;286.77;;;267.50;;
63050;SDS011;49136;47.416;19.402;2023-08-07T01:43:03;280.15;;;259.92;;
63050;SDS011;49136;47.416;19.402;2023-08-07T01:45:29;258.52;;;241.60;;
63050;SDS011;49136;47.416;19.402;2023-08-07T01:47:54;286.75;;;266.90;;
63050;SDS011;49136;47.416;19.402;2023-08-07T01:50:21;331.17;;;306.67;;
63050;SDS011;49136;47.416;19.402;2023-08-07T01:52:47;286.35;;;266.70;;
63050;SDS011;49136;47.416;19.402;2023-08-07T01:55:17;298.15;;;278.08;;
63050;SDS011;49136;47.416;19.402;2023-08-07T01:57:43;318.23;;;295.48;;
63050;SDS011;49136;47.416;19.402;2023-08-07T02:00:09;261.45;;;243.38;;
63050;SDS011;49136;47.416;19.402;2023-08-07T02:02:35;288.15;;;267.83;;
63050;SDS011;49136;47.416;19.402;2023-08-07T02:05:01;286.17;;;265.25;;
63050;SDS011;49136;47.416;19.402;2023-08-07T02:07:27;298.88;;;277.92;;
63050;SDS011;49136;47.416;19.402;2023-08-07T02:09:52;263.42;;;246.18;;
63050;SDS011;49136;47.416;19.402;2023-08-07T02:12:18;303.55;;;282.65;;
63050;SDS011;49136;47.416;19.402;2023-08-07T02:14:43;263.75;;;245.60;;
63050;SDS011;49136;47.416;19.402;2023-08-07T02:17:08;294.95;;;274.73;;
63050;SDS011;49136;47.416;19.402;2023-08-07T02:19:34;291.02;;;271.23;;
63050;SDS011;49136;47.416;19.402;2023-08-07T02:21:59;279.92;;;261.05;;
63050;SDS011;49136;47.416;19.402;2023-08-07T02:24:25;300.85;;;278.08;;
63050;SDS011;49136;47.416;19.402;2023-08-07T02:26:50;295.80;;;275.80;;
63050;SDS011;49136;47.416;19.402;2023-08-07T02:29:16;272.75;;;254.23;;
63050;SDS011;49136;47.416;19.402;2023-08-07T02:31:41;289.25;;;269.30;;
63050;SDS011;49136;47.416;19.402;2023-08-07T02:34:06;313.27;;;292.27;;
63050;SDS011;49136;47.416;19.402;2023-08-07T02:36:32;287.45;;;267.55;;
63050;SDS011;49136;47.416;19.402;2023-08-07T02:38:57;262.83;;;245.00;;
63050;SDS011;49136;47.416;19.402;2023-08-07T02:41:23;302.00;;;281.38;;
63050;SDS011;49136;47.416;19.402;2023-08-07T02:43:48;357.40;;;330.15;;
63050;SDS011;49136;47.416;19.402;2023-08-07T02:46:13;370.63;;;341.83;;
63050;SDS011;49136;47.416;19.402;2023-08-07T02:48:39;254.77;;;237.93;;
63050;SDS011;49136;47.416;19.402;2023-08-07T02:51:05;416.17;;;381.45;;
63050;SDS011;49136;47.416;19.402;2023-08-07T02:53:31;352.83;;;325.45;;
63050;SDS011;49136;47.416;19.402;2023-08-07T02:55:56;394.05;;;363.05;;
63050;SDS011;49136;47.416;19.402;2023-08-07T02:58:22;277.65;;;258.48;;
63050;SDS011;49136;47.416;19.402;2023-08-07T03:00:47;330.35;;;304.88;;
63050;SDS011;49136;47.416;19.402;2023-08-07T03:03:12;284.55;;;265.15;;
63050;SDS011;49136;47.416;19.402;2023-08-07T03:05:38;292.00;;;272.13;;
63050;SDS011;49136;47.416;19.402;2023-08-07T03:08:03;302.05;;;280.83;;
63050;SDS011;49136;47.416;19.402;2023-08-07T03:10:29;283.77;;;264.80;;
63050;SDS011;49136;47.416;19.402;2023-08-07T03:12:54;312.27;;;290.33;;
63050;SDS011;49136;47.416;19.402;2023-08-07T03:15:19;292.08;;;271.85;;
63050;SDS011;49136;47.416;19.402;2023-08-07T03:17:45;284.83;;;265.38;;
63050;SDS011;49136;47.416;19.402;2023-08-07T03:20:10;332.35;;;307.63;;
63050;SDS011;49136;47.416;19.402;2023-08-07T03:22:36;379.67;;;349.70;;
63050;SDS011;49136;47.416;19.402;2023-08-07T03:25:02;357.40;;;328.42;;
63050;SDS011;49136;47.416;19.402;2023-08-07T03:27:27;261.48;;;243.88;;
63050;SDS011;49136;47.416;19.402;2023-08-07T03:29:53;297.05;;;275.90;;
63050;SDS011;49136;47.416;19.402;2023-08-07T03:32:18;349.02;;;322.05;;
63050;SDS011;49136;47.416;19.402;2023-08-07T03:34:44;285.40;;;266.42;;
63050;SDS011;49136;47.416;19.402;2023-08-07T03:37:09;390.70;;;359.67;;
63050;SDS011;49136;47.416;19.402;2023-08-07T03:39:35;283.70;;;264.17;;
63050;SDS011;49136;47.416;19.402;2023-08-07T03:42:00;331.33;;;307.67;;
63050;SDS011;49136;47.416;19.402;2023-08-07T03:44:26;442.00;;;405.40;;
63050;SDS011;49136;47.416;19.402;2023-08-07T03:46:51;291.90;;;272.02;;
63050;SDS011;49136;47.416;19.402;2023-08-07T03:49:16;294.75;;;274.35;;
63050;SDS011;49136;47.416;19.402;2023-08-07T03:51:42;350.75;;;325.20;;
63050;SDS011;49136;47.416;19.402;2023-08-07T03:54:07;254.32;;;237.55;;
63050;SDS011;49136;47.416;19.402;2023-08-07T03:56:33;273.75;;;255.05;;
63050;SDS011;49136;47.416;19.402;2023-08-07T03:59:01;312.85;;;290.48;;
63050;SDS011;49136;47.416;19.402;2023-08-07T04:01:29;305.13;;;284.73;;
63050;SDS011;49136;47.416;19.402;2023-08-07T04:03:54;308.60;;;286.55;;
63050;SDS011;49136;47.416;19.402;2023-08-07T04:06:20;298.38;;;277.77;;
63050;SDS011;49136;47.416;19.402;2023-08-07T04:08:46;330.33;;;306.80;;
63050;SDS011;49136;47.416;19.402;2023-08-07T04:11:12;267.60;;;249.02;;
63050;SDS011;49136;47.416;19.402;2023-08-07T04:13:38;270.38;;;252.05;;
63050;SDS011;49136;47.416;19.402;2023-08-07T04:16:03;278.65;;;259.73;;
63050;SDS011;49136;47.416;19.402;2023-08-07T04:18:30;287.20;;;267.58;;
63050;SDS011;49136;47.416;19.402;2023-08-07T04:20:56;318.40;;;296.83;;
63050;SDS011;49136;47.416;19.402;2023-08-07T04:23:22;295.92;;;275.73;;
63050;SDS011;49136;47.416;19.402;2023-08-07T04:25:48;243.82;;;226.65;;
63050;SDS011;49136;47.416;19.402;2023-08-07T04:28:14;307.98;;;286.33;;
63050;SDS011;49136;47.416;19.402;2023-08-07T04:30:40;369.58;;;341.70;;
63050;SDS011;49136;47.416;19.402;2023-08-07T04:33:06;304.38;;;283.15;;
63050;SDS011;49136;47.416;19.402;2023-08-07T04:35:32;323.50;;;301.00;;
63050;SDS011;49136;47.416;19.402;2023-08-07T04:37:57;273.92;;;254.98;;
63050;SDS011;49136;47.416;19.402;2023-08-07T04:40:23;342.95;;;318.25;;
63050;SDS011;49136;47.416;19.402;2023-08-07T04:42:48;373.83;;;345.08;;
63050;SDS011;49136;47.416;19.402;2023-08-07T04:45:14;328.92;;;305.80;;
63050;SDS011;49136;47.416;19.402;2023-08-07T04:47:40;498.30;;;452.77;;
63050;SDS011;49136;47.416;19.402;2023-08-07T04:50:06;284.33;;;264.08;;
63050;SDS011;49136;47.416;19.402;2023-08-07T04:52:32;284.17;;;263.98;;
63050;SDS011;49136;47.416;19.402;2023-08-07T04:54:57;329.05;;;306.25;;
63050;SDS011;49136;47.416;19.402;2023-08-07T04:57:23;334.83;;;311.02;;
63050;SDS011;49136;47.416;19.402;2023-08-07T04:59:49;299.77;;;278.55;;
63050;SDS011;49136;47.416;19.402;2023-08-07T05:02:15;323.17;;;299.48;;
63050;SDS011;49136;47.416;19.402;2023-08-07T05:04:41;312.13;;;289.70;;
63050;SDS011;49136;47.416;19.402;2023-08-07T05:07:06;327.20;;;303.70;;
63050;SDS011;49136;47.416;19.402;2023-08-07T05:09:32;326.08;;;303.10;;
63050;SDS011;49136;47.416;19.402;2023-08-07T05:11:57;389.00;;;359.27;;
63050;SDS011;49136;47.416;19.402;2023-08-07T05:14:22;443.80;;;406.92;;
63050;SDS011;49136;47.416;19.402;2023-08-07T05:16:48;374.67;;;347.23;;
63050;SDS011;49136;47.416;19.402;2023-08-07T05:19:13;361.83;;;337.27;;
63050;SDS011;49136;47.416;19.402;2023-08-07T05:21:39;378.83;;;352.00;;
63050;SDS011;49136;47.416;19.402;2023-08-07T05:24:04;377.27;;;351.85;;
63050;SDS011;49136;47.416;19.402;2023-08-07T05:26:30;445.95;;;410.90;;
63050;SDS011;49136;47.416;19.402;2023-08-07T05:28:56;384.92;;;358.70;;
63050;SDS011;49136;47.416;19.402;2023-08-07T05:31:24;379.63;;;354.73;;
63050;SDS011;49136;47.416;19.402;2023-08-07T05:33:50;436.55;;;406.35;;
63050;SDS011;49136;47.416;19.402;2023-08-07T05:36:15;443.58;;;411.45;;
63050;SDS011;49136;47.416;19.402;2023-08-07T05:38:41;408.55;;;379.58;;
63050;SDS011;49136;47.416;19.402;2023-08-07T05:41:08;451.85;;;419.70;;
63050;SDS011;49136;47.416;19.402;2023-08-07T05:43:34;436.58;;;405.80;;
63050;SDS011;49136;47.416;19.402;2023-08-07T05:45:59;477.58;;;442.73;;
63050;SDS011;49136;47.416;19.402;2023-08-07T05:48:25;409.00;;;379.60;;
63050;SDS011;49136;47.416;19.402;2023-08-07T05:50:51;448.48;;;416.67;;
63050;SDS011;49136;47.416;19.402;2023-08-07T05:53:17;491.83;;;451.95;;
63050;SDS011;49136;47.416;19.402;2023-08-07T05:55:43;500.15;;;458.67;;
63050;SDS011;49136;47.416;19.402;2023-08-07T05:58:08;466.83;;;430.58;;
63050;SDS011;49136;47.416;19.402;2023-08-07T06:00:34;478.33;;;442.48;;
63050;SDS011;49136;47.416;19.402;2023-08-07T06:02:59;458.33;;;424.25;;
63050;SDS011;49136;47.416;19.402;2023-08-07T06:05:25;649.65;;;585.50;;
63050;SDS011;49136;47.416;19.402;2023-08-07T06:07:55;393.23;;;363.80;;
63050;SDS011;49136;47.416;19.402;2023-08-07T06:10:20;461.88;;;424.80;;
63050;SDS011;49136;47.416;19.402;2023-08-07T06:12:46;380.83;;;352.20;;
63050;SDS011;49136;47.416;19.402;2023-08-07T06:15:11;495.38;;;456.70;;
63050;SDS011;49136;47.416;19.402;2023-08-07T06:17:37;354.42;;;329.45;;
63050;SDS011;49136;47.416;19.402;2023-08-07T06:20:04;386.15;;;357.70;;
63050;SDS011;49136;47.416;19.402;2023-08-07T06:22:32;447.80;;;413.30;;
63050;SDS011;49136;47.416;19.402;2023-08-07T06:24:57;417.85;;;387.35;;
63050;SDS011;49136;47.416;19.402;2023-08-07T06:27:23;396.80;;;368.98;;
63050;SDS011;49136;47.416;19.402;2023-08-07T06:29:48;376.70;;;349.90;;
63050;SDS011;49136;47.416;19.402;2023-08-07T06:32:13;432.40;;;398.38;;
63050;SDS011;49136;47.416;19.402;2023-08-07T06:34:39;539.88;;;493.70;;
63050;SDS011;49136;47.416;19.402;2023-08-07T06:37:05;484.60;;;442.55;;
63050;SDS011;49136;47.416;19.402;2023-08-07T06:39:30;525.17;;;480.75;;
63050;SDS011;49136;47.416;19.402;2023-08-07T06:41:56;446.30;;;411.10;;
63050;SDS011;49136;47.416;19.402;2023-08-07T06:44:21;546.05;;;501.17;;
63050;SDS011;49136;47.416;19.402;2023-08-07T06:46:47;685.50;;;615.22;;
63050;SDS011;49136;47.416;19.402;2023-08-07T06:49:12;435.85;;;402.98;;
63050;SDS011;49136;47.416;19.402;2023-08-07T06:51:38;581.30;;;529.80;;
63050;SDS011;49136;47.416;19.402;2023-08-07T06:54:03;503.00;;;460.27;;
63050;SDS011;49136;47.416;19.402;2023-08-07T06:56:29;444.02;;;410.23;;
63050;SDS011;49136;47.416;19.402;2023-08-07T06:58:54;540.60;;;496.35;;
63050;SDS011;49136;47.416;19.402;2023-08-07T07:01:21;485.77;;;447.10;;
63050;SDS011;49136;47.416;19.402;2023-08-07T07:03:46;445.17;;;412.30;;
63050;SDS011;49136;47.416;19.402;2023-08-07T07:06:17;402.20;;;373.52;;
63050;SDS011;49136;47.416;19.402;2023-08-07T07:08:43;414.95;;;384.50;;
63050;SDS011;49136;47.416;19.402;2023-08-07T07:11:08;424.23;;;393.27;;
63050;SDS011;49136;47.416;19.402;2023-08-07T07:13:34;526.22;;;484.92;;
63050;SDS011;49136;47.416;19.402;2023-08-07T07:15:59;544.60;;;494.85;;
63050;SDS011;49136;47.416;19.402;2023-08-07T07:18:24;432.77;;;401.08;;
63050;SDS011;49136;47.416;19.402;2023-08-07T07:20:57;432.60;;;400.45;;
63050;SDS011;49136;47.416;19.402;2023-08-07T07:23:23;427.95;;;396.00;;
63050;SDS011;49136;47.416;19.402;2023-08-07T07:25:49;449.85;;;416.98;;
63050;SDS011;49136;47.416;19.402;2023-08-07T07:28:14;451.13;;;417.92;;
63050;SDS011;49136;47.416;19.402;2023-08-07T07:30:40;434.38;;;402.00;;
63050;SDS011;49136;47.416;19.402;2023-08-07T07:33:05;428.05;;;397.60;;
63050;SDS011;49136;47.416;19.402;2023-08-07T07:35:31;644.13;;;577.50;;
63050;SDS011;49136;47.416;19.402;2023-08-07T07:37:57;416.15;;;386.75;;
63050;SDS011;49136;47.416;19.402;2023-08-07T07:40:22;410.25;;;381.98;;
63050;SDS011;49136;47.416;19.402;2023-08-07T07:42:48;644.42;;;574.55;;
63050;SDS011;49136;47.416;19.402;2023-08-07T07:45:13;402.85;;;375.63;;
63050;SDS011;49136;47.416;19.402;2023-08-07T07:47:38;446.55;;;414.73;;
63050;SDS011;49136;47.416;19.402;2023-08-07T07:50:07;469.67;;;434.65;;
63050;SDS011;49136;47.416;19.402;2023-08-07T07:52:33;417.80;;;389.23;;
63050;SDS011;49136;47.416;19.402;2023-08-07T07:54:59;489.05;;;448.05;;
63050;SDS011;49136;47.416;19.402;2023-08-07T07:57:25;442.90;;;411.35;;
63050;SDS011;49136;47.416;19.402;2023-08-07T07:59:51;490.58;;;453.42;;
63050;SDS011;49136;47.416;19.402;2023-08-07T08:02:17;471.95;;;435.95;;
63050;SDS011;49136;47.416;19.402;2023-08-07T08:04:45;468.92;;;434.75;;
63050;SDS011;49136;47.416;19.402;2023-08-07T08:07:11;558.20;;;509.50;;
63050;SDS011;49136;47.416;19.402;2023-08-07T08:09:37;572.08;;;520.03;;
63050;SDS011;49136;47.416;19.402;2023-08-07T08:12:02;455.77;;;421.25;;
63050;SDS011;49136;47.416;19.402;2023-08-07T08:14:28;487.75;;;449.70;;
63050;SDS011;49136;47.416;19.402;2023-08-07T08:16:53;486.27;;;447.13;;
63050;SDS011;49136;47.416;19.402;2023-08-07T08:19:19;503.67;;;463.05;;
63050;SDS011;49136;47.416;19.402;2023-08-07T08:21:44;519.30;;;477.70;;
63050;SDS011;49136;47.416;19.402;2023-08-07T08:24:10;578.92;;;528.53;;
63050;SDS011;49136;47.416;19.402;2023-08-07T08:26:35;590.42;;;538.83;;
63050;SDS011;49136;47.416;19.402;2023-08-07T08:29:01;497.05;;;456.30;;
63050;SDS011;49136;47.416;19.402;2023-08-07T08:31:26;501.67;;;461.95;;
63050;SDS011;49136;47.416;19.402;2023-08-07T08:33:51;485.83;;;448.48;;
63050;SDS011;49136;47.416;19.402;2023-08-07T08:36:17;476.05;;;439.90;;
63050;SDS011;49136;47.416;19.402;2023-08-07T08:38:43;573.53;;;521.67;;
63050;SDS011;49136;47.416;19.402;2023-08-07T08:41:10;449.80;;;414.80;;
63050;SDS011;49136;47.416;19.402;2023-08-07T08:43:35;527.65;;;480.75;;
63050;SDS011;49136;47.416;19.402;2023-08-07T08:46:06;444.38;;;410.27;;
63050;SDS011;49136;47.416;19.402;2023-08-07T08:48:36;448.90;;;415.23;;
63050;SDS011;49136;47.416;19.402;2023-08-07T08:51:04;474.15;;;437.63;;
63050;SDS011;49136;47.416;19.402;2023-08-07T08:53:30;494.15;;;453.02;;
63050;SDS011;49136;47.416;19.402;2023-08-07T08:55:57;546.97;;;498.10;;
63050;SDS011;49136;47.416;19.402;2023-08-07T08:58:22;503.50;;;461.58;;
63050;SDS011;49136;47.416;19.402;2023-08-07T09:00:48;507.50;;;465.88;;
63050;SDS011;49136;47.416;19.402;2023-08-07T09:03:14;509.80;;;469.83;;
63050;SDS011;49136;47.416;19.402;2023-08-07T09:05:40;472.85;;;437.48;;
63050;SDS011;49136;47.416;19.402;2023-08-07T09:08:06;451.25;;;417.25;;
63050;SDS011;49136;47.416;19.402;2023-08-07T09:10:33;480.98;;;444.52;;
63050;SDS011;49136;47.416;19.402;2023-08-07T09:13:00;508.23;;;468.85;;
63050;SDS011;49136;47.416;19.402;2023-08-07T09:15:31;497.88;;;460.27;;
63050;SDS011;49136;47.416;19.402;2023-08-07T09:17:57;460.55;;;425.20;;
63050;SDS011;49136;47.416;19.402;2023-08-07T09:20:24;500.85;;;461.58;;
63050;SDS011;49136;47.416;19.402;2023-08-07T09:22:50;675.13;;;603.67;;
63050;SDS011;49136;47.416;19.402;2023-08-07T09:25:26;499.73;;;460.48;;
63050;SDS011;49136;47.416;19.402;2023-08-07T09:27:52;525.50;;;483.45;;
63050;SDS011;49136;47.416;19.402;2023-08-07T09:30:20;500.95;;;462.00;;
63050;SDS011;49136;47.416;19.402;2023-08-07T09:32:47;500.98;;;461.70;;
63050;SDS011;49136;47.416;19.402;2023-08-07T09:35:13;663.58;;;595.45;;
63050;SDS011;49136;47.416;19.402;2023-08-07T09:37:38;485.85;;;449.00;;
63050;SDS011;49136;47.416;19.402;2023-08-07T09:40:04;487.70;;;451.13;;
63050;SDS011;49136;47.416;19.402;2023-08-07T09:42:30;652.75;;;595.25;;
63050;SDS011;49136;47.416;19.402;2023-08-07T09:44:57;435.48;;;403.58;;
63050;SDS011;49136;47.416;19.402;2023-08-07T09:47:24;511.27;;;471.25;;
63050;SDS011;49136;47.416;19.402;2023-08-07T09:49:50;596.45;;;545.67;;
63050;SDS011;49136;47.416;19.402;2023-08-07T09:52:19;476.95;;;440.38;;
63050;SDS011;49136;47.416;19.402;2023-08-07T09:54:44;487.80;;;450.73;;
63050;SDS011;49136;47.416;19.402;2023-08-07T09:57:10;570.33;;;522.97;;
63050;SDS011;49136;47.416;19.402;2023-08-07T09:59:35;579.30;;;532.72;;
63050;SDS011;49136;47.416;19.402;2023-08-07T10:02:01;491.15;;;455.10;;
63050;SDS011;49136;47.416;19.402;2023-08-07T10:04:28;492.83;;;456.95;;
63050;SDS011;49136;47.416;19.402;2023-08-07T10:06:54;532.42;;;489.48;;
63050;SDS011;49136;47.416;19.402;2023-08-07T10:09:21;497.83;;;458.95;;
63050;SDS011;49136;47.416;19.402;2023-08-07T10:11:46;858.63;;;733.58;;
63050;SDS011;49136;47.416;19.402;2023-08-07T10:14:13;615.97;;;562.92;;
63050;SDS011;49136;47.416;19.402;2023-08-07T10:16:39;482.40;;;445.52;;
63050;SDS011;49136;47.416;19.402;2023-08-07T10:19:06;596.22;;;544.28;;
63050;SDS011;49136;47.416;19.402;2023-08-07T10:21:36;521.90;;;480.92;;
63050;SDS011;49136;47.416;19.402;2023-08-07T10:24:03;457.83;;;422.90;;
63050;SDS011;49136;47.416;19.402;2023-08-07T10:26:30;496.20;;;458.55;;
63050;SDS011;49136;47.416;19.402;2023-08-07T10:28:58;495.02;;;456.63;;
63050;SDS011;49136;47.416;19.402;2023-08-07T10:31:25;410.17;;;379.38;;
63050;SDS011;49136;47.416;19.402;2023-08-07T10:33:51;425.55;;;392.90;;
63050;SDS011;49136;47.416;19.402;2023-08-07T10:36:18;402.33;;;371.85;;
63050;SDS011;49136;47.416;19.402;2023-08-07T10:38:44;329.40;;;306.75;;
63050;SDS011;49136;47.416;19.402;2023-08-07T10:41:13;295.27;;;275.98;;
63050;SDS011;49136;47.416;19.402;2023-08-07T10:43:43;407.58;;;376.95;;
63050;SDS011;49136;47.416;19.402;2023-08-07T10:48:38;274.98;;;257.42;;
63050;SDS011;49136;47.416;19.402;2023-08-07T10:51:06;473.08;;;431.35;;
63050;SDS011;49136;47.416;19.402;2023-08-07T10:56:04;501.35;;;458.63;;
63050;SDS011;49136;47.416;19.402;2023-08-07T10:58:33;531.13;;;485.70;;
63050;SDS011;49136;47.416;19.402;2023-08-07T11:03:45;353.20;;;328.63;;
63050;SDS011;49136;47.416;19.402;2023-08-07T11:06:13;389.80;;;362.70;;
63050;SDS011;49136;47.416;19.402;2023-08-07T11:08:38;550.70;;;502.95;;
63050;SDS011;49136;47.416;19.402;2023-08-07T11:11:05;318.75;;;298.67;;
63050;SDS011;49136;47.416;19.402;2023-08-07T11:13:31;386.90;;;359.15;;
63050;SDS011;49136;47.416;19.402;2023-08-07T11:15:57;319.25;;;298.67;;
63050;SDS011;49136;47.416;19.402;2023-08-07T11:18:24;391.20;;;363.75;;
63050;SDS011;49136;47.416;19.402;2023-08-07T11:20:50;282.00;;;264.77;;
63050;SDS011;49136;47.416;19.402;2023-08-07T11:23:16;412.13;;;380.35;;
63050;SDS011;49136;47.416;19.402;2023-08-07T11:25:48;354.00;;;329.77;;
63050;SDS011;49136;47.416;19.402;2023-08-07T11:28:13;459.63;;;419.40;;
63050;SDS011;49136;47.416;19.402;2023-08-07T11:30:39;423.15;;;389.88;;
63050;SDS011;49136;47.416;19.402;2023-08-07T11:33:05;302.98;;;283.90;;
63050;SDS011;49136;47.416;19.402;2023-08-07T11:35:31;386.02;;;355.83;;
63050;SDS011;49136;47.416;19.402;2023-08-07T11:37:56;459.17;;;421.27;;
63050;SDS011;49136;47.416;19.402;2023-08-07T11:40:23;352.95;;;327.70;;
63050;SDS011;49136;47.416;19.402;2023-08-07T11:42:48;318.20;;;297.15;;
63050;SDS011;49136;47.416;19.402;2023-08-07T11:45:13;368.60;;;342.02;;
63050;SDS011;49136;47.416;19.402;2023-08-07T11:47:40;277.55;;;259.33;;
63050;SDS011;49136;47.416;19.402;2023-08-07T11:50:06;545.65;;;489.42;;
63050;SDS011;49136;47.416;19.402;2023-08-07T11:52:32;552.50;;;504.10;;
63050;SDS011;49136;47.416;19.402;2023-08-07T11:54:58;385.08;;;351.38;;
63050;SDS011;49136;47.416;19.402;2023-08-07T11:57:26;291.45;;;273.00;;
63050;SDS011;49136;47.416;19.402;2023-08-07T11:59:52;282.20;;;264.65;;
63050;SDS011;49136;47.416;19.402;2023-08-07T12:02:22;436.60;;;399.13;;
63050;SDS011;49136;47.416;19.402;2023-08-07T12:07:17;271.10;;;254.48;;
63050;SDS011;49136;47.416;19.402;2023-08-07T12:09:44;285.70;;;266.83;;
63050;SDS011;49136;47.416;19.402;2023-08-07T12:12:10;306.27;;;286.30;;
63050;SDS011;49136;47.416;19.402;2023-08-07T12:14:36;299.67;;;279.52;;
63050;SDS011;49136;47.416;19.402;2023-08-07T12:17:03;300.15;;;280.85;;
63050;SDS011;49136;47.416;19.402;2023-08-07T12:19:38;437.98;;;401.83;;
63050;SDS011;49136;47.416;19.402;2023-08-07T12:22:06;257.30;;;241.60;;
63050;SDS011;49136;47.416;19.402;2023-08-07T12:24:34;268.83;;;251.90;;
63050;SDS011;49136;47.416;19.402;2023-08-07T12:27:00;326.88;;;304.50;;
63050;SDS011;49136;47.416;19.402;2023-08-07T12:29:26;361.73;;;331.63;;
63050;SDS011;49136;47.416;19.402;2023-08-07T12:31:54;495.10;;;451.20;;
63050;SDS011;49136;47.416;19.402;2023-08-07T12:34:20;303.33;;;283.77;;
63050;SDS011;49136;47.416;19.402;2023-08-07T12:36:45;332.48;;;308.63;;
63050;SDS011;49136;47.416;19.402;2023-08-07T12:39:12;251.20;;;235.18;;
63050;SDS011;49136;47.416;19.402;2023-08-07T12:41:37;433.27;;;397.27;;
63050;SDS011;49136;47.416;19.402;2023-08-07T12:44:03;181.98;;;171.52;;
63050;SDS011;49136;47.416;19.402;2023-08-07T12:46:28;244.48;;;228.77;;
63050;SDS011;49136;47.416;19.402;2023-08-07T12:48:54;263.63;;;246.68;;
63050;SDS011;49136;47.416;19.402;2023-08-07T12:51:19;181.00;;;170.57;;
63050;SDS011;49136;47.416;19.402;2023-08-07T12:53:45;247.40;;;231.55;;
63050;SDS011;49136;47.416;19.402;2023-08-07T12:56:12;186.27;;;175.90;;
63050;SDS011;49136;47.416;19.402;2023-08-07T12:58:37;249.23;;;234.13;;
63050;SDS011;49136;47.416;19.402;2023-08-07T13:01:04;358.98;;;330.35;;
63050;SDS011;49136;47.416;19.402;2023-08-07T13:03:29;226.73;;;211.98;;
63050;SDS011;49136;47.416;19.402;2023-08-07T13:05:55;205.40;;;192.55;;
63050;SDS011;49136;47.416;19.402;2023-08-07T13:08:20;188.07;;;177.40;;
63050;SDS011;49136;47.416;19.402;2023-08-07T13:10:46;232.93;;;218.35;;
63050;SDS011;49136;47.416;19.402;2023-08-07T13:13:11;208.13;;;195.45;;
63050;SDS011;49136;47.416;19.402;2023-08-07T13:15:36;373.55;;;345.15;;
63050;SDS011;49136;47.416;19.402;2023-08-07T13:18:02;172.95;;;163.27;;
63050;SDS011;49136;47.416;19.402;2023-08-07T13:20:28;202.07;;;190.07;;
63050;SDS011;49136;47.416;19.402;2023-08-07T13:22:58;204.90;;;193.13;;
63050;SDS011;49136;47.416;19.402;2023-08-07T13:25:23;284.55;;;264.80;;
63050;SDS011;49136;47.416;19.402;2023-08-07T13:27:49;197.63;;;185.63;;
63050;SDS011;49136;47.416;19.402;2023-08-07T13:30:14;209.60;;;196.82;;
63050;SDS011;49136;47.416;19.402;2023-08-07T13:32:40;300.00;;;278.10;;
63050;SDS011;49136;47.416;19.402;2023-08-07T13:35:05;311.40;;;290.25;;
63050;SDS011;49136;47.416;19.402;2023-08-07T13:37:31;195.15;;;183.52;;
63050;SDS011;49136;47.416;19.402;2023-08-07T13:39:58;416.42;;;382.98;;
63050;SDS011;49136;47.416;19.402;2023-08-07T13:42:24;232.90;;;218.05;;
63050;SDS011;49136;47.416;19.402;2023-08-07T13:44:53;463.58;;;424.70;;
63050;SDS011;49136;47.416;19.402;2023-08-07T13:47:20;295.40;;;274.23;;
63050;SDS011;49136;47.416;19.402;2023-08-07T13:49:46;415.55;;;381.77;;
63050;SDS011;49136;47.416;19.402;2023-08-07T13:52:12;312.92;;;289.80;;
63050;SDS011;49136;47.416;19.402;2023-08-07T13:54:37;353.10;;;325.75;;